Time;durP1;ratioP1;P1;durP2;ratioP2;P2;SDS_P1;SDS_P2;PMS_P1;PMS_P2;Temp;Humidity;BMP_temperature;BMP_pressure;BME280_temperature;BME280_humidity;BME280_pressure;Samples;Min_cycle;Max_cycle;Signal;HPM_P1;HPM_P2
2022/03/31 00:00:58;;;;;;;21.37;14.83;;;;;;;;;;4929239;28;20443;-52
2022/03/31 00:03:24;;;;;;;25.43;14.50;;;;;;;;;;4942806;28;20525;-56
2022/03/31 00:05:51;;;;;;;25.07;15.80;;;;;;;;;;4943028;28;20940;-51
2022/03/31 00:08:20;;;;;;;24.20;14.03;;;;;;;;;;4944963;28;20442;-51
2022/03/31 00:10:47;;;;;;;21.93;14.10;;;;;;;;;;4943891;28;20506;-51
2022/03/31 00:13:17;;;;;;;22.47;14.00;;;;;;;;;;4941249;28;20508;-49
2022/03/31 00:15:43;;;;;;;20.37;13.73;;;;;;;;;;4942936;28;21016;-51
2022/03/31 00:18:09;;;;;;;21.63;15.17;;;;;;;;;;4942404;28;20426;-51
2022/03/31 00:20:36;;;;;;;23.07;13.37;;;;;;;;;;4944107;28;20515;-50
2022/03/31 00:23:02;;;;;;;28.83;16.60;;;;;;;;;;4944000;28;20547;-51
2022/03/31 00:25:28;;;;;;;23.40;14.67;;;;;;;;;;4945578;28;20474;-50
2022/03/31 00:27:57;;;;;;;23.93;13.00;;;;;;;;;;4940083;28;20443;-50
2022/03/31 00:30:23;;;;;;;22.07;13.77;;;;;;;;;;4937055;28;20423;-50
2022/03/31 00:32:49;;;;;;;20.50;14.50;;;;;;;;;;4946429;28;20449;-50
2022/03/31 00:35:15;;;;;;;20.10;12.13;;;;;;;;;;4970823;28;20435;-50
2022/03/31 00:37:42;;;;;;;20.50;12.90;;;;;;;;;;4941608;28;20459;-50
2022/03/31 00:40:09;;;;;;;20.37;12.77;;;;;;;;;;4944963;28;20466;-50
2022/03/31 00:42:44;;;;;;;23.47;14.60;;;;;;;;;;4944118;28;20445;-50
2022/03/31 00:45:21;;;;;;;24.17;13.60;;;;;;;;;;4939101;28;20574;-51
2022/03/31 00:47:47;;;;;;;20.70;12.13;;;;;;;;;;4945060;28;20534;-50
2022/03/31 00:50:13;;;;;;;23.53;13.23;;;;;;;;;;4960520;28;20502;-50
2022/03/31 00:52:39;;;;;;;20.77;13.50;;;;;;;;;;4945970;28;20435;-50
2022/03/31 00:55:06;;;;;;;22.30;12.03;;;;;;;;;;4940507;28;20794;-50
2022/03/31 00:57:32;;;;;;;19.83;12.30;;;;;;;;;;4943790;28;20455;-49
2022/03/31 00:59:58;;;;;;;19.97;13.67;;;;;;;;;;4942709;28;20450;-50
2022/03/31 01:02:27;;;;;;;19.60;13.53;;;;;;;;;;4943305;28;20487;-50
2022/03/31 01:04:53;;;;;;;21.53;12.67;;;;;;;;;;4945467;28;20445;-50
2022/03/31 01:07:19;;;;;;;18.93;12.73;;;;;;;;;;4945966;28;20534;-49
2022/03/31 01:09:45;;;;;;;15.90;12.30;;;;;;;;;;4940007;28;20791;-49
2022/03/31 01:12:11;;;;;;;18.87;11.30;;;;;;;;;;4945661;28;20482;-51
2022/03/31 01:14:37;;;;;;;17.17;11.10;;;;;;;;;;4943194;28;20441;-50
2022/03/31 01:17:03;;;;;;;18.83;11.80;;;;;;;;;;4941893;28;20855;-49
2022/03/31 01:19:29;;;;;;;18.30;10.40;;;;;;;;;;4944679;28;20823;-49
2022/03/31 01:21:56;;;;;;;19.23;12.03;;;;;;;;;;4939616;28;20480;-51
2022/03/31 01:24:22;;;;;;;16.90;11.00;;;;;;;;;;4937686;28;20482;-50
2022/03/31 01:26:48;;;;;;;17.63;11.00;;;;;;;;;;4941382;28;20451;-50
2022/03/31 01:29:14;;;;;;;18.80;10.47;;;;;;;;;;4943783;28;20435;-50
2022/03/31 01:31:40;;;;;;;15.67;9.60;;;;;;;;;;4941116;28;20613;-50
2022/03/31 01:34:07;;;;;;;15.40;9.47;;;;;;;;;;4946932;28;20759;-50
2022/03/31 01:36:33;;;;;;;14.80;10.40;;;;;;;;;;4952484;28;20435;-50
2022/03/31 01:38:59;;;;;;;16.37;10.47;;;;;;;;;;4944344;28;21147;-50
2022/03/31 01:41:25;;;;;;;16.17;9.87;;;;;;;;;;4946510;28;20474;-50
2022/03/31 01:43:51;;;;;;;16.70;10.57;;;;;;;;;;4945038;28;20475;-51
2022/03/31 01:46:17;;;;;;;14.60;9.80;;;;;;;;;;4946626;28;21192;-50
2022/03/31 01:48:43;;;;;;;11.50;8.53;;;;;;;;;;4945231;28;20466;-50
2022/03/31 01:51:10;;;;;;;15.37;10.43;;;;;;;;;;4946843;28;20453;-50
2022/03/31 01:53:37;;;;;;;14.73;10.03;;;;;;;;;;4942259;28;20525;-50
2022/03/31 01:56:03;;;;;;;14.97;10.50;;;;;;;;;;4958281;28;20489;-50
2022/03/31 01:58:29;;;;;;;15.00;10.50;;;;;;;;;;4943292;28;20455;-50
2022/03/31 02:00:55;;;;;;;15.80;10.37;;;;;;;;;;4957939;28;20443;-50
2022/03/31 02:03:23;;;;;;;17.10;10.93;;;;;;;;;;4944582;28;20478;-50
2022/03/31 02:05:49;;;;;;;16.03;9.40;;;;;;;;;;4945433;28;20501;-50
2022/03/31 02:08:15;;;;;;;14.80;9.77;;;;;;;;;;4942286;28;20439;-50
2022/03/31 02:10:41;;;;;;;15.70;10.43;;;;;;;;;;4947850;28;20450;-50
2022/03/31 02:13:08;;;;;;;13.93;9.97;;;;;;;;;;4942931;28;20855;-50
2022/03/31 02:15:34;;;;;;;17.60;11.60;;;;;;;;;;4945350;28;20980;-50
2022/03/31 02:18:03;;;;;;;17.03;12.17;;;;;;;;;;4942747;28;20485;-50
2022/03/31 02:20:30;;;;;;;18.80;10.63;;;;;;;;;;4942910;28;21254;-50
2022/03/31 02:22:56;;;;;;;21.13;13.20;;;;;;;;;;4945226;28;20462;-50
2022/03/31 02:25:23;;;;;;;19.03;11.13;;;;;;;;;;4943971;28;21723;-50
2022/03/31 02:27:51;;;;;;;18.53;10.47;;;;;;;;;;4943120;28;20444;-50
2022/03/31 02:30:17;;;;;;;17.90;10.43;;;;;;;;;;4944070;28;20639;-50
2022/03/31 02:32:43;;;;;;;18.20;11.43;;;;;;;;;;4946208;28;20447;-50
2022/03/31 02:35:09;;;;;;;21.20;12.10;;;;;;;;;;4944287;28;20804;-50
2022/03/31 02:37:35;;;;;;;22.27;11.70;;;;;;;;;;4945285;28;20831;-50
2022/03/31 02:40:01;;;;;;;21.33;12.40;;;;;;;;;;4945296;28;20849;-50
2022/03/31 02:42:27;;;;;;;18.93;12.30;;;;;;;;;;4943512;28;20436;-50
2022/03/31 02:44:53;;;;;;;19.90;10.80;;;;;;;;;;4944647;28;20995;-50
2022/03/31 02:47:19;;;;;;;20.53;12.33;;;;;;;;;;4948260;28;20462;-51
2022/03/31 02:49:45;;;;;;;17.80;11.80;;;;;;;;;;4928690;29;20435;-50
2022/03/31 02:52:11;;;;;;;20.90;10.87;;;;;;;;;;4947966;28;20470;-51
2022/03/31 02:57:21;;;;;;;16.87;11.33;;;;;;;;;;4943478;28;20238;-50
2022/03/31 02:59:48;;;;;;;19.00;11.60;;;;;;;;;;4949951;28;20439;-50
2022/03/31 03:02:14;;;;;;;22.60;12.53;;;;;;;;;;4940835;28;20454;-50
2022/03/31 03:04:40;;;;;;;15.27;10.70;;;;;;;;;;4942199;28;20609;-50
2022/03/31 03:07:06;;;;;;;17.97;11.23;;;;;;;;;;4946547;28;20435;-50
2022/03/31 03:09:32;;;;;;;15.60;10.67;;;;;;;;;;4940759;28;20543;-50
2022/03/31 03:11:58;;;;;;;15.03;10.67;;;;;;;;;;4942922;28;20431;-50
2022/03/31 03:14:24;;;;;;;16.77;11.40;;;;;;;;;;4943062;28;20575;-50
2022/03/31 03:16:50;;;;;;;18.60;12.83;;;;;;;;;;4944274;28;20434;-50
2022/03/31 03:19:17;;;;;;;18.20;12.10;;;;;;;;;;4940339;28;20447;-50
2022/03/31 03:21:43;;;;;;;20.30;12.13;;;;;;;;;;4938032;28;20438;-50
2022/03/31 03:24:10;;;;;;;20.43;13.60;;;;;;;;;;4940771;28;20483;-50
2022/03/31 03:26:36;;;;;;;17.20;12.37;;;;;;;;;;4944618;28;20446;-55
2022/03/31 03:29:02;;;;;;;14.90;11.10;;;;;;;;;;4943371;28;20438;-50
2022/03/31 03:31:28;;;;;;;16.83;10.87;;;;;;;;;;4944586;28;20524;-50
2022/03/31 03:33:54;;;;;;;17.93;11.50;;;;;;;;;;4945474;28;20582;-50
2022/03/31 03:36:20;;;;;;;18.80;12.90;;;;;;;;;;4945669;28;20195;-50
2022/03/31 03:38:46;;;;;;;15.47;11.33;;;;;;;;;;4946429;28;21026;-51
2022/03/31 03:41:12;;;;;;;19.57;10.80;;;;;;;;;;4939124;28;20455;-50
2022/03/31 03:43:39;;;;;;;18.57;12.37;;;;;;;;;;4944420;28;21043;-50
2022/03/31 03:46:05;;;;;;;18.70;12.47;;;;;;;;;;4942982;28;20858;-50
2022/03/31 03:48:31;;;;;;;19.90;13.17;;;;;;;;;;4944150;28;20638;-51
2022/03/31 03:50:58;;;;;;;17.50;11.93;;;;;;;;;;4946600;28;20439;-50
2022/03/31 03:53:25;;;;;;;21.40;14.67;;;;;;;;;;4941215;28;20443;-50
2022/03/31 03:55:51;;;;;;;19.63;11.97;;;;;;;;;;4941131;28;21528;-50
2022/03/31 03:58:18;;;;;;;19.60;13.20;;;;;;;;;;4942860;28;20464;-50
2022/03/31 04:00:44;;;;;;;16.23;11.50;;;;;;;;;;4943988;28;21430;-50
2022/03/31 04:03:10;;;;;;;18.03;11.90;;;;;;;;;;4944482;28;20481;-50
2022/03/31 04:05:36;;;;;;;19.97;13.20;;;;;;;;;;4941758;28;20483;-50
2022/03/31 04:08:02;;;;;;;19.57;11.83;;;;;;;;;;4945789;28;20525;-50
2022/03/31 04:10:27;;;;;;;20.70;15.40;;;;;;;;;;4940629;28;20980;-50
2022/03/31 04:12:54;;;;;;;17.10;12.90;;;;;;;;;;4943707;28;20937;-50
2022/03/31 04:15:20;;;;;;;21.80;13.30;;;;;;;;;;4938119;28;20439;-51
2022/03/31 04:17:46;;;;;;;20.53;14.73;;;;;;;;;;4944570;28;20576;-51
2022/03/31 04:20:13;;;;;;;18.73;12.90;;;;;;;;;;4945014;28;20824;-51
2022/03/31 04:22:45;;;;;;;16.17;12.10;;;;;;;;;;4940363;28;20440;-50
2022/03/31 04:25:12;;;;;;;19.43;12.53;;;;;;;;;;4927016;28;20719;-50
2022/03/31 04:27:38;;;;;;;24.43;13.80;;;;;;;;;;4945517;28;20482;-50
2022/03/31 04:30:05;;;;;;;15.90;10.97;;;;;;;;;;4940970;28;20451;-51
2022/03/31 04:32:33;;;;;;;21.20;13.63;;;;;;;;;;4929953;28;20498;-51
2022/03/31 04:34:59;;;;;;;21.43;13.80;;;;;;;;;;4930912;28;20461;-51
2022/03/31 04:37:25;;;;;;;17.97;13.10;;;;;;;;;;4932748;28;20440;-51
2022/03/31 04:39:54;;;;;;;22.60;14.40;;;;;;;;;;4936397;28;20459;-53
2022/03/31 04:42:20;;;;;;;19.27;13.00;;;;;;;;;;4940892;28;21043;-50
2022/03/31 04:44:48;;;;;;;17.80;12.10;;;;;;;;;;4933875;28;20655;-50
2022/03/31 04:47:41;;;;;;;20.93;13.23;;;;;;;;;;4932404;28;20442;-51
2022/03/31 04:50:19;;;;;;;17.57;12.27;;;;;;;;;;4929555;28;20442;-50
2022/03/31 04:52:46;;;;;;;21.13;12.70;;;;;;;;;;4935374;28;20439;-50
2022/03/31 04:55:14;;;;;;;16.10;12.70;;;;;;;;;;4933990;28;20431;-50
2022/03/31 04:57:42;;;;;;;21.80;13.50;;;;;;;;;;4930467;28;21326;-50
2022/03/31 05:00:20;;;;;;;20.97;13.43;;;;;;;;;;4931954;28;20463;-50
2022/03/31 05:02:46;;;;;;;22.00;13.30;;;;;;;;;;4936592;28;20447;-50
2022/03/31 05:05:12;;;;;;;28.20;15.30;;;;;;;;;;4938590;28;20438;-50
2022/03/31 05:07:39;;;;;;;18.27;11.80;;;;;;;;;;4940055;28;20192;-52
2022/03/31 05:10:05;;;;;;;19.87;14.37;;;;;;;;;;4944534;28;20451;-51
2022/03/31 05:12:31;;;;;;;18.33;11.93;;;;;;;;;;4943723;28;20438;-52
2022/03/31 05:14:59;;;;;;;23.23;13.53;;;;;;;;;;4942872;28;20760;-52
2022/03/31 05:17:27;;;;;;;17.70;13.13;;;;;;;;;;4931165;29;20435;-51
2022/03/31 05:19:53;;;;;;;20.63;12.97;;;;;;;;;;4951728;28;20443;-51
2022/03/31 05:22:19;;;;;;;19.37;13.70;;;;;;;;;;4948479;28;20469;-52
2022/03/31 05:24:45;;;;;;;16.40;11.73;;;;;;;;;;4945284;28;21035;-50
2022/03/31 05:27:11;;;;;;;14.27;10.53;;;;;;;;;;4949827;28;20914;-50
2022/03/31 05:29:38;;;;;;;17.50;12.50;;;;;;;;;;4945313;28;20444;-51
2022/03/31 05:32:04;;;;;;;19.17;13.70;;;;;;;;;;4938850;28;20499;-52
2022/03/31 05:34:31;;;;;;;20.03;14.17;;;;;;;;;;4952231;28;20984;-51
2022/03/31 05:36:58;;;;;;;20.00;12.83;;;;;;;;;;4943062;28;20431;-51
2022/03/31 05:39:26;;;;;;;16.70;11.97;;;;;;;;;;4946556;28;20580;-51
2022/03/31 05:41:52;;;;;;;17.17;12.10;;;;;;;;;;4951699;28;21386;-52
2022/03/31 05:44:18;;;;;;;17.87;12.10;;;;;;;;;;4944866;28;20562;-50
2022/03/31 05:46:44;;;;;;;17.50;12.20;;;;;;;;;;4945566;28;20491;-50
2022/03/31 05:49:11;;;;;;;14.03;10.20;;;;;;;;;;4947363;28;21040;-50
2022/03/31 05:51:37;;;;;;;21.10;11.80;;;;;;;;;;4941392;28;20435;-58
2022/03/31 05:54:04;;;;;;;18.27;12.20;;;;;;;;;;4957383;28;20596;-51
2022/03/31 05:56:30;;;;;;;21.93;12.10;;;;;;;;;;4954264;28;20787;-51
2022/03/31 05:58:57;;;;;;;15.87;10.57;;;;;;;;;;4938272;28;20454;-51
2022/03/31 06:01:26;;;;;;;17.83;10.50;;;;;;;;;;4933346;28;20435;-51
2022/03/31 06:03:55;;;;;;;19.07;12.07;;;;;;;;;;4957325;28;21520;-52
2022/03/31 06:06:23;;;;;;;21.67;12.17;;;;;;;;;;4939547;28;20533;-51
2022/03/31 06:08:49;;;;;;;16.50;10.57;;;;;;;;;;4936243;28;21057;-51
2022/03/31 06:11:24;;;;;;;19.57;12.00;;;;;;;;;;4940456;28;20445;-51
2022/03/31 06:13:53;;;;;;;20.70;12.23;;;;;;;;;;4942382;28;20828;-52
2022/03/31 06:16:19;;;;;;;18.87;11.70;;;;;;;;;;4939531;28;20845;-52
2022/03/31 06:18:46;;;;;;;16.63;11.40;;;;;;;;;;4924880;29;20439;-52
2022/03/31 06:21:12;;;;;;;17.87;11.90;;;;;;;;;;4940886;28;20450;-51
2022/03/31 06:23:38;;;;;;;17.73;11.60;;;;;;;;;;4941021;28;20991;-50
2022/03/31 06:26:04;;;;;;;15.50;11.47;;;;;;;;;;4932269;28;20453;-51
2022/03/31 06:28:32;;;;;;;22.40;14.30;;;;;;;;;;4930851;28;20834;-56
2022/03/31 06:30:58;;;;;;;19.67;11.33;;;;;;;;;;4937941;28;20534;-51
2022/03/31 06:33:24;;;;;;;18.70;11.37;;;;;;;;;;4940394;28;20473;-51
2022/03/31 06:35:53;;;;;;;19.37;13.63;;;;;;;;;;4937233;28;20462;-51
2022/03/31 06:38:20;;;;;;;19.27;12.00;;;;;;;;;;4941594;28;20483;-51
2022/03/31 06:41:06;;;;;;;20.30;12.33;;;;;;;;;;4941691;28;21284;-51
2022/03/31 06:43:37;;;;;;;18.13;12.30;;;;;;;;;;4943752;28;20491;-52
2022/03/31 06:46:16;;;;;;;16.83;12.93;;;;;;;;;;4934608;28;21833;-51
2022/03/31 06:48:42;;;;;;;18.57;12.23;;;;;;;;;;4938452;28;20952;-51
2022/03/31 06:51:16;;;;;;;19.60;13.30;;;;;;;;;;4940966;28;20440;-50
2022/03/31 06:53:43;;;;;;;21.80;12.60;;;;;;;;;;4939232;28;20451;-50
2022/03/31 06:56:10;;;;;;;19.10;11.93;;;;;;;;;;4936190;28;20438;-52
2022/03/31 06:58:36;;;;;;;19.97;12.13;;;;;;;;;;4941375;28;20423;-51
2022/03/31 07:01:05;;;;;;;28.90;14.60;;;;;;;;;;4936729;28;20541;-51
2022/03/31 07:03:33;;;;;;;18.27;10.70;;;;;;;;;;4933952;28;21011;-51
2022/03/31 07:05:59;;;;;;;21.00;11.63;;;;;;;;;;4931755;28;20443;-50
2022/03/31 07:08:26;;;;;;;18.80;11.90;;;;;;;;;;4938382;28;20457;-51
2022/03/31 07:10:53;;;;;;;19.10;12.30;;;;;;;;;;4939568;28;20539;-51
2022/03/31 07:13:19;;;;;;;16.20;11.00;;;;;;;;;;4937630;28;20454;-52
2022/03/31 07:15:46;;;;;;;17.70;12.20;;;;;;;;;;4941021;28;20451;-51
2022/03/31 07:18:12;;;;;;;23.60;14.17;;;;;;;;;;4932867;28;20435;-51
2022/03/31 07:20:41;;;;;;;16.70;10.60;;;;;;;;;;4936495;28;20439;-52
2022/03/31 07:23:07;;;;;;;20.13;12.63;;;;;;;;;;4931339;28;20483;-51
2022/03/31 07:25:34;;;;;;;20.23;14.20;;;;;;;;;;4928278;28;21423;-51
2022/03/31 07:28:03;;;;;;;20.27;14.10;;;;;;;;;;4951669;28;20458;-51
2022/03/31 07:30:29;;;;;;;21.60;12.30;;;;;;;;;;4931524;28;21457;-51
2022/03/31 07:33:00;;;;;;;19.93;13.20;;;;;;;;;;4936653;28;20443;-52
2022/03/31 07:35:27;;;;;;;19.80;12.57;;;;;;;;;;4937075;28;20506;-50
2022/03/31 07:37:54;;;;;;;22.63;13.60;;;;;;;;;;4937507;28;20444;-51
2022/03/31 07:40:21;;;;;;;20.70;13.50;;;;;;;;;;4935648;28;20479;-54
2022/03/31 07:42:47;;;;;;;20.27;11.90;;;;;;;;;;4936842;28;20435;-50
2022/03/31 07:45:13;;;;;;;19.83;13.33;;;;;;;;;;4934597;28;20906;-51
2022/03/31 07:47:42;;;;;;;21.70;12.73;;;;;;;;;;4934852;28;20526;-50
2022/03/31 07:50:10;;;;;;;20.20;13.10;;;;;;;;;;4932996;28;20439;-51
2022/03/31 07:52:38;;;;;;;18.43;12.13;;;;;;;;;;4948122;28;20462;-51
2022/03/31 07:55:04;;;;;;;19.37;13.47;;;;;;;;;;4938258;28;20530;-51
2022/03/31 07:57:30;;;;;;;18.90;12.73;;;;;;;;;;4964184;28;20547;-50
2022/03/31 08:00:03;;;;;;;18.67;13.50;;;;;;;;;;4937000;28;20821;-51
2022/03/31 08:02:29;;;;;;;17.70;13.13;;;;;;;;;;4933784;28;20485;-52
2022/03/31 08:04:55;;;;;;;16.40;11.57;;;;;;;;;;4932641;28;20577;-51
2022/03/31 08:07:23;;;;;;;16.87;11.07;;;;;;;;;;4930359;28;20535;-51
2022/03/31 08:09:49;;;;;;;20.27;14.57;;;;;;;;;;4936014;28;20475;-51
2022/03/31 08:12:17;;;;;;;16.37;11.40;;;;;;;;;;4919970;29;20767;-51
2022/03/31 08:14:43;;;;;;;21.63;13.77;;;;;;;;;;4933889;28;21040;-51
2022/03/31 08:17:09;;;;;;;18.43;13.00;;;;;;;;;;4935518;28;20489;-51
2022/03/31 08:19:36;;;;;;;19.83;13.27;;;;;;;;;;4937439;28;20439;-51
2022/03/31 08:22:02;;;;;;;19.17;13.63;;;;;;;;;;4937507;28;20449;-51
2022/03/31 08:24:30;;;;;;;21.20;12.67;;;;;;;;;;4937266;28;20486;-51
2022/03/31 08:27:00;;;;;;;21.07;13.13;;;;;;;;;;4936452;28;20584;-51
2022/03/31 08:29:26;;;;;;;23.37;13.97;;;;;;;;;;4936253;28;20451;-51
2022/03/31 08:31:52;;;;;;;20.10;14.00;;;;;;;;;;4934164;28;20442;-51
2022/03/31 08:34:18;;;;;;;21.50;13.40;;;;;;;;;;4938186;28;20779;-51
2022/03/31 08:36:44;;;;;;;20.23;13.37;;;;;;;;;;4935990;28;20462;-51
2022/03/31 08:39:12;;;;;;;19.83;12.30;;;;;;;;;;4932634;28;20447;-53
2022/03/31 08:41:38;;;;;;;17.60;12.43;;;;;;;;;;4935154;28;20570;-50
2022/03/31 08:44:05;;;;;;;18.33;12.67;;;;;;;;;;4936686;28;20486;-50
2022/03/31 08:46:33;;;;;;;17.00;12.00;;;;;;;;;;4929802;28;20510;-50
2022/03/31 08:48:59;;;;;;;18.20;13.07;;;;;;;;;;4931600;28;21038;-51
2022/03/31 08:51:26;;;;;;;17.80;12.00;;;;;;;;;;4935792;28;20536;-51
2022/03/31 08:53:56;;;;;;;20.00;13.40;;;;;;;;;;4937395;28;20451;-51
2022/03/31 08:56:24;;;;;;;17.00;12.80;;;;;;;;;;4935789;28;20537;-51
2022/03/31 08:58:51;;;;;;;20.80;13.40;;;;;;;;;;4950409;28;20546;-51
2022/03/31 09:01:22;;;;;;;19.90;14.77;;;;;;;;;;4928951;28;20446;-52
2022/03/31 09:03:48;;;;;;;17.57;12.20;;;;;;;;;;4960401;28;20886;-50
2022/03/31 09:06:23;;;;;;;22.50;15.07;;;;;;;;;;4933133;28;20862;-52
2022/03/31 09:08:57;;;;;;;20.53;12.87;;;;;;;;;;4937882;28;20736;-51
2022/03/31 09:11:32;;;;;;;19.97;13.70;;;;;;;;;;4936669;28;20453;-52
2022/03/31 09:13:59;;;;;;;16.63;11.83;;;;;;;;;;4915720;28;20752;-50
2022/03/31 09:16:29;;;;;;;17.37;13.70;;;;;;;;;;4930873;28;20479;-50
2022/03/31 09:19:03;;;;;;;23.17;13.73;;;;;;;;;;4928745;28;20490;-52
2022/03/31 09:21:35;;;;;;;21.53;13.43;;;;;;;;;;4945071;28;21067;-51
2022/03/31 09:24:03;;;;;;;22.97;14.33;;;;;;;;;;4936679;28;20467;-52
2022/03/31 09:26:32;;;;;;;17.80;12.57;;;;;;;;;;4931762;28;20443;-50
2022/03/31 09:29:12;;;;;;;21.03;13.27;;;;;;;;;;4928885;28;20451;-50
2022/03/31 09:31:38;;;;;;;25.90;15.50;;;;;;;;;;4933664;28;20485;-51
2022/03/31 09:34:04;;;;;;;20.10;15.00;;;;;;;;;;4937404;28;21246;-51
2022/03/31 09:36:31;;;;;;;18.00;13.37;;;;;;;;;;4930227;28;20541;-50
2022/03/31 09:39:01;;;;;;;20.20;13.80;;;;;;;;;;4938743;28;20971;-51
2022/03/31 09:41:28;;;;;;;18.40;13.30;;;;;;;;;;4937713;28;20768;-51
2022/03/31 09:43:57;;;;;;;18.73;14.00;;;;;;;;;;4936542;28;20482;-50
2022/03/31 09:46:30;;;;;;;20.37;14.97;;;;;;;;;;4934901;28;20451;-51
2022/03/31 09:48:59;;;;;;;21.57;14.90;;;;;;;;;;4916844;28;20454;-51
2022/03/31 09:51:25;;;;;;;21.00;14.30;;;;;;;;;;4932834;28;20431;-52
2022/03/31 09:53:55;;;;;;;21.63;14.00;;;;;;;;;;4932409;28;20435;-51
2022/03/31 09:56:25;;;;;;;22.20;14.27;;;;;;;;;;4937487;28;20462;-52
2022/03/31 09:58:55;;;;;;;22.10;14.70;;;;;;;;;;4938356;28;20457;-51
2022/03/31 10:01:23;;;;;;;21.87;14.80;;;;;;;;;;4919970;29;20525;-51
2022/03/31 10:03:49;;;;;;;21.00;14.87;;;;;;;;;;4934455;28;20482;-52
2022/03/31 10:06:17;;;;;;;22.27;14.53;;;;;;;;;;4932276;28;20953;-51
2022/03/31 10:09:06;;;;;;;20.40;14.17;;;;;;;;;;4929993;28;20431;-51
2022/03/31 10:11:37;;;;;;;18.67;13.43;;;;;;;;;;4934515;28;20917;-55
2022/03/31 10:14:07;;;;;;;22.53;14.20;;;;;;;;;;4940380;28;20482;-51
2022/03/31 10:16:50;;;;;;;20.40;13.90;;;;;;;;;;4941733;28;20443;-51
2022/03/31 10:19:35;;;;;;;21.30;12.53;;;;;;;;;;4954117;28;21447;-52
2022/03/31 10:22:01;;;;;;;19.17;14.00;;;;;;;;;;4965933;28;20469;-52
2022/03/31 10:27:26;;;;;;;24.07;14.40;;;;;;;;;;4925897;28;20514;-51
2022/03/31 10:29:52;;;;;;;21.70;14.90;;;;;;;;;;4933276;28;21086;-51
2022/03/31 10:32:19;;;;;;;25.90;15.90;;;;;;;;;;4936190;28;20472;-53
2022/03/31 10:34:48;;;;;;;27.97;15.43;;;;;;;;;;4932118;28;20726;-53
2022/03/31 10:37:14;;;;;;;24.57;14.13;;;;;;;;;;4940383;29;20443;-51
2022/03/31 10:39:52;;;;;;;22.77;14.63;;;;;;;;;;4937941;28;20795;-51
2022/03/31 10:42:18;;;;;;;23.77;14.87;;;;;;;;;;4939859;28;20442;-51
2022/03/31 10:44:45;;;;;;;25.53;15.40;;;;;;;;;;4939995;28;20483;-50
2022/03/31 10:47:11;;;;;;;23.63;16.20;;;;;;;;;;4938920;28;20518;-50
2022/03/31 10:49:37;;;;;;;25.00;15.87;;;;;;;;;;4940265;29;20472;-51
2022/03/31 10:52:15;;;;;;;20.27;15.07;;;;;;;;;;4935218;28;20470;-52
2022/03/31 10:54:41;;;;;;;23.63;14.53;;;;;;;;;;4935695;28;20976;-51
2022/03/31 10:57:15;;;;;;;24.30;15.33;;;;;;;;;;4936800;28;20699;-50
2022/03/31 10:59:42;;;;;;;22.07;15.90;;;;;;;;;;4936960;28;20469;-52
2022/03/31 11:02:09;;;;;;;25.73;17.40;;;;;;;;;;4935475;28;20457;-50
2022/03/31 11:04:45;;;;;;;24.60;15.03;;;;;;;;;;4935126;28;20514;-51
2022/03/31 11:07:20;;;;;;;17.80;13.10;;;;;;;;;;4921090;29;20450;-51
2022/03/31 11:09:48;;;;;;;19.23;13.87;;;;;;;;;;4937334;28;20590;-51
2022/03/31 11:12:26;;;;;;;22.13;15.63;;;;;;;;;;4941646;28;20443;-50
2022/03/31 11:14:54;;;;;;;25.43;15.40;;;;;;;;;;4940203;28;20443;-52
2022/03/31 11:17:27;;;;;;;20.87;14.50;;;;;;;;;;4938283;28;20462;-51
2022/03/31 11:19:53;;;;;;;19.50;13.03;;;;;;;;;;4940317;28;20451;-51
2022/03/31 11:22:27;;;;;;;23.73;15.30;;;;;;;;;;4940391;28;20462;-52
2022/03/31 11:24:54;;;;;;;27.27;16.07;;;;;;;;;;4941984;28;20475;-52
2022/03/31 11:27:31;;;;;;;21.93;12.77;;;;;;;;;;4941185;28;20446;-53
2022/03/31 11:29:58;;;;;;;27.13;14.63;;;;;;;;;;4939095;28;20453;-51
2022/03/31 11:32:32;;;;;;;22.70;15.00;;;;;;;;;;4940488;28;20455;-51
2022/03/31 11:34:58;;;;;;;23.50;13.60;;;;;;;;;;4942663;28;20460;-51
2022/03/31 11:37:24;;;;;;;21.47;14.77;;;;;;;;;;4942402;28;20866;-51
2022/03/31 11:39:55;;;;;;;15.90;11.87;;;;;;;;;;4936046;28;20490;-51
2022/03/31 11:42:22;;;;;;;19.50;14.10;;;;;;;;;;4938650;28;20996;-52
2022/03/31 11:44:49;;;;;;;26.00;14.43;;;;;;;;;;4939289;28;20482;-52
2022/03/31 11:47:20;;;;;;;22.80;15.33;;;;;;;;;;4935038;28;20440;-52
2022/03/31 11:49:56;;;;;;;20.60;12.60;;;;;;;;;;4940834;28;20455;-52
2022/03/31 11:52:27;;;;;;;19.23;14.20;;;;;;;;;;4935136;28;20446;-51
2022/03/31 11:54:58;;;;;;;19.57;13.00;;;;;;;;;;4935765;28;20446;-51
2022/03/31 11:57:24;;;;;;;22.57;15.20;;;;;;;;;;4941700;28;20443;-51
2022/03/31 11:59:52;;;;;;;23.13;14.57;;;;;;;;;;4938741;28;20479;-51
2022/03/31 12:02:18;;;;;;;20.73;14.60;;;;;;;;;;4936127;28;20447;-51
2022/03/31 12:04:44;;;;;;;19.47;14.07;;;;;;;;;;4933362;28;20491;-51
2022/03/31 12:07:11;;;;;;;21.50;14.37;;;;;;;;;;4935154;28;20474;-51
2022/03/31 12:09:41;;;;;;;25.63;14.47;;;;;;;;;;4939299;28;20443;-51
2022/03/31 12:12:17;;;;;;;23.97;14.23;;;;;;;;;;4934948;28;20474;-50
2022/03/31 12:14:54;;;;;;;20.70;14.30;;;;;;;;;;4944533;28;20438;-51
2022/03/31 12:17:20;;;;;;;24.17;13.87;;;;;;;;;;4933848;28;20603;-56
2022/03/31 12:19:46;;;;;;;24.70;14.40;;;;;;;;;;4935803;28;20855;-51
2022/03/31 12:22:12;;;;;;;20.33;13.97;;;;;;;;;;4938946;28;20480;-51
2022/03/31 12:24:52;;;;;;;19.13;13.30;;;;;;;;;;4935743;28;20842;-50
2022/03/31 12:27:18;;;;;;;20.60;14.20;;;;;;;;;;4938584;28;20478;-51
2022/03/31 12:29:44;;;;;;;23.20;14.47;;;;;;;;;;4970662;28;20534;-52
2022/03/31 12:32:14;;;;;;;21.00;12.57;;;;;;;;;;4935681;28;20582;-52
2022/03/31 12:34:41;;;;;;;25.67;13.50;;;;;;;;;;4939776;28;20546;-51
2022/03/31 12:37:08;;;;;;;23.13;13.70;;;;;;;;;;4937283;28;20530;-51
2022/03/31 12:39:40;;;;;;;24.20;12.93;;;;;;;;;;4952004;28;20462;-52
2022/03/31 12:42:07;;;;;;;20.93;13.47;;;;;;;;;;4936028;28;20880;-53
2022/03/31 12:44:38;;;;;;;22.37;13.30;;;;;;;;;;4935590;28;20490;-52
2022/03/31 12:47:08;;;;;;;18.50;13.27;;;;;;;;;;4935311;28;20475;-52
2022/03/31 12:49:35;;;;;;;18.97;12.47;;;;;;;;;;4938905;28;20447;-52
2022/03/31 12:52:02;;;;;;;18.60;13.80;;;;;;;;;;4936748;28;20437;-51
2022/03/31 12:54:29;;;;;;;21.90;14.27;;;;;;;;;;4928129;28;20935;-51
2022/03/31 12:56:56;;;;;;;23.63;13.80;;;;;;;;;;4928863;28;20451;-58
2022/03/31 12:59:23;;;;;;;21.60;13.80;;;;;;;;;;4933953;28;20439;-50
2022/03/31 13:02:00;;;;;;;19.10;13.40;;;;;;;;;;4934158;28;20455;-50
2022/03/31 13:04:26;;;;;;;20.23;13.60;;;;;;;;;;4938289;28;20494;-51
2022/03/31 13:06:52;;;;;;;21.10;15.33;;;;;;;;;;4939654;28;20443;-52
2022/03/31 13:09:18;;;;;;;21.53;13.40;;;;;;;;;;4937847;28;20873;-51
2022/03/31 13:11:44;;;;;;;19.87;14.00;;;;;;;;;;4940098;28;20439;-52
2022/03/31 13:14:19;;;;;;;20.43;14.27;;;;;;;;;;4930280;28;20436;-54
2022/03/31 13:16:47;;;;;;;21.07;14.20;;;;;;;;;;4932851;28;20546;-51
2022/03/31 13:19:13;;;;;;;19.23;13.77;;;;;;;;;;4933249;28;20597;-50
2022/03/31 13:21:40;;;;;;;20.87;12.77;;;;;;;;;;4936554;28;20459;-52
2022/03/31 13:24:07;;;;;;;20.30;13.27;;;;;;;;;;4933209;28;20521;-51
2022/03/31 13:26:33;;;;;;;21.07;14.10;;;;;;;;;;4932673;28;20446;-51
2022/03/31 13:29:03;;;;;;;21.57;13.90;;;;;;;;;;4934008;28;20462;-51
2022/03/31 13:31:29;;;;;;;20.43;13.53;;;;;;;;;;4935109;28;23495;-52
2022/03/31 13:33:55;;;;;;;19.40;14.03;;;;;;;;;;4972241;28;20494;-51
2022/03/31 13:36:21;;;;;;;20.33;14.10;;;;;;;;;;4923325;28;20446;-51
2022/03/31 13:38:47;;;;;;;19.17;12.90;;;;;;;;;;4938553;28;20872;-49
2022/03/31 13:41:22;;;;;;;19.80;13.10;;;;;;;;;;4940585;28;21288;-51
2022/03/31 13:43:48;;;;;;;20.00;12.97;;;;;;;;;;4968309;28;20568;-51
2022/03/31 13:46:20;;;;;;;23.80;12.87;;;;;;;;;;4937145;28;20447;-50
2022/03/31 13:48:46;;;;;;;22.90;13.47;;;;;;;;;;4929428;28;20451;-48
2022/03/31 13:51:14;;;;;;;19.57;13.87;;;;;;;;;;4939636;28;20431;-51
2022/03/31 13:53:45;;;;;;;19.87;14.13;;;;;;;;;;4938945;28;20451;-51
2022/03/31 13:56:13;;;;;;;19.77;13.70;;;;;;;;;;4951294;28;20435;-50
2022/03/31 14:01:23;;;;;;;26.13;14.50;;;;;;;;;;4935096;28;20474;-50
2022/03/31 14:03:55;;;;;;;25.93;15.20;;;;;;;;;;4940568;28;21299;-52
2022/03/31 14:06:21;;;;;;;25.63;16.57;;;;;;;;;;4935208;28;20732;-51
2022/03/31 14:08:48;;;;;;;27.97;14.93;;;;;;;;;;4938722;28;20455;-51
2022/03/31 14:11:17;;;;;;;22.43;16.03;;;;;;;;;;4934964;28;20502;-51
2022/03/31 14:13:43;;;;;;;24.40;15.83;;;;;;;;;;4937620;28;20889;-49
2022/03/31 14:16:15;;;;;;;22.00;15.00;;;;;;;;;;4940960;28;20917;-51
2022/03/31 14:18:41;;;;;;;22.90;15.20;;;;;;;;;;4956793;28;20454;-51
2022/03/31 14:21:08;;;;;;;24.67;17.30;;;;;;;;;;4937825;28;20532;-51
2022/03/31 14:23:35;;;;;;;26.10;15.03;;;;;;;;;;4935677;28;20487;-50
2022/03/31 14:26:01;;;;;;;29.53;17.00;;;;;;;;;;4940679;28;20511;-50
2022/03/31 14:28:28;;;;;;;28.80;15.37;;;;;;;;;;4940345;28;20762;-51